sensor_id;sensor_type;location;lat;lon;timestamp;P1;durP1;ratioP1;P2;durP2;ratioP2
42614;SDS011;28754;47.700;7.924;2022-07-06T00:00:24;0.82;;;0.45;;
42614;SDS011;28754;47.700;7.924;2022-07-06T00:03:11;2.50;;;0.93;;
42614;SDS011;28754;47.700;7.924;2022-07-06T00:05:57;5.25;;;0.73;;
42614;SDS011;28754;47.700;7.924;2022-07-06T00:08:47;1.60;;;0.70;;
42614;SDS011;28754;47.700;7.924;2022-07-06T00:11:34;1.13;;;0.88;;
42614;SDS011;28754;47.700;7.924;2022-07-06T00:14:21;4.28;;;1.00;;
42614;SDS011;28754;47.700;7.924;2022-07-06T00:17:10;2.50;;;0.90;;
42614;SDS011;28754;47.700;7.924;2022-07-06T00:19:58;2.33;;;0.90;;
42614;SDS011;28754;47.700;7.924;2022-07-06T00:22:45;3.67;;;0.93;;
42614;SDS011;28754;47.700;7.924;2022-07-06T00:25:31;1.00;;;0.68;;
42614;SDS011;28754;47.700;7.924;2022-07-06T00:28:18;1.83;;;1.13;;
42614;SDS011;28754;47.700;7.924;2022-07-06T00:31:05;1.77;;;0.75;;
42614;SDS011;28754;47.700;7.924;2022-07-06T00:33:52;1.70;;;1.08;;
42614;SDS011;28754;47.700;7.924;2022-07-06T00:36:39;1.25;;;0.82;;
42614;SDS011;28754;47.700;7.924;2022-07-06T00:39:25;2.38;;;0.80;;
42614;SDS011;28754;47.700;7.924;2022-07-06T00:42:15;0.70;;;0.65;;
42614;SDS011;28754;47.700;7.924;2022-07-06T00:45:01;0.70;;;0.63;;
42614;SDS011;28754;47.700;7.924;2022-07-06T00:47:48;3.45;;;1.05;;
42614;SDS011;28754;47.700;7.924;2022-07-06T00:50:35;0.90;;;0.75;;
42614;SDS011;28754;47.700;7.924;2022-07-06T00:53:22;1.75;;;0.80;;
42614;SDS011;28754;47.700;7.924;2022-07-06T00:56:10;1.40;;;0.85;;
42614;SDS011;28754;47.700;7.924;2022-07-06T00:58:57;1.40;;;0.77;;
42614;SDS011;28754;47.700;7.924;2022-07-06T01:01:46;1.25;;;0.90;;
42614;SDS011;28754;47.700;7.924;2022-07-06T01:04:33;1.50;;;0.82;;
42614;SDS011;28754;47.700;7.924;2022-07-06T01:07:19;3.88;;;0.90;;
42614;SDS011;28754;47.700;7.924;2022-07-06T01:10:07;3.08;;;0.98;;
42614;SDS011;28754;47.700;7.924;2022-07-06T01:12:57;1.13;;;0.82;;
42614;SDS011;28754;47.700;7.924;2022-07-06T01:15:44;8.10;;;1.17;;
42614;SDS011;28754;47.700;7.924;2022-07-06T01:18:31;3.60;;;1.52;;
42614;SDS011;28754;47.700;7.924;2022-07-06T01:21:18;2.20;;;1.27;;
42614;SDS011;28754;47.700;7.924;2022-07-06T01:24:05;4.78;;;1.05;;
42614;SDS011;28754;47.700;7.924;2022-07-06T01:26:52;2.85;;;0.80;;
42614;SDS011;28754;47.700;7.924;2022-07-06T01:29:39;0.93;;;0.57;;
42614;SDS011;28754;47.700;7.924;2022-07-06T01:32:25;1.75;;;1.00;;
42614;SDS011;28754;47.700;7.924;2022-07-06T01:35:14;1.88;;;0.90;;
42614;SDS011;28754;47.700;7.924;2022-07-06T01:38:01;2.13;;;0.95;;
42614;SDS011;28754;47.700;7.924;2022-07-06T01:40:48;2.42;;;1.10;;
42614;SDS011;28754;47.700;7.924;2022-07-06T01:43:35;4.05;;;0.73;;
42614;SDS011;28754;47.700;7.924;2022-07-06T01:46:22;1.48;;;0.82;;
42614;SDS011;28754;47.700;7.924;2022-07-06T01:49:08;3.70;;;1.27;;
42614;SDS011;28754;47.700;7.924;2022-07-06T01:51:55;3.30;;;1.00;;
42614;SDS011;28754;47.700;7.924;2022-07-06T01:54:43;1.35;;;0.80;;
42614;SDS011;28754;47.700;7.924;2022-07-06T01:57:30;1.55;;;0.95;;
42614;SDS011;28754;47.700;7.924;2022-07-06T02:00:16;2.33;;;0.82;;
42614;SDS011;28754;47.700;7.924;2022-07-06T02:03:08;4.65;;;1.20;;
42614;SDS011;28754;47.700;7.924;2022-07-06T02:05:57;3.08;;;0.85;;
42614;SDS011;28754;47.700;7.924;2022-07-06T02:08:44;2.15;;;1.23;;
42614;SDS011;28754;47.700;7.924;2022-07-06T02:11:31;3.75;;;1.15;;
42614;SDS011;28754;47.700;7.924;2022-07-06T02:14:18;3.83;;;0.88;;
42614;SDS011;28754;47.700;7.924;2022-07-06T02:17:04;1.45;;;1.23;;
42614;SDS011;28754;47.700;7.924;2022-07-06T02:19:54;2.47;;;0.82;;
42614;SDS011;28754;47.700;7.924;2022-07-06T02:22:41;0.77;;;0.60;;
42614;SDS011;28754;47.700;7.924;2022-07-06T02:25:28;1.40;;;0.70;;
42614;SDS011;28754;47.700;7.924;2022-07-06T02:28:15;2.17;;;1.00;;
42614;SDS011;28754;47.700;7.924;2022-07-06T02:31:02;1.33;;;1.00;;
42614;SDS011;28754;47.700;7.924;2022-07-06T02:33:49;2.05;;;1.05;;
42614;SDS011;28754;47.700;7.924;2022-07-06T02:36:36;5.05;;;0.93;;
42614;SDS011;28754;47.700;7.924;2022-07-06T02:39:23;1.25;;;0.77;;
42614;SDS011;28754;47.700;7.924;2022-07-06T02:42:10;2.88;;;0.88;;
42614;SDS011;28754;47.700;7.924;2022-07-06T02:44:57;4.60;;;1.08;;
42614;SDS011;28754;47.700;7.924;2022-07-06T02:47:43;1.73;;;0.80;;
42614;SDS011;28754;47.700;7.924;2022-07-06T02:50:30;0.88;;;0.80;;
42614;SDS011;28754;47.700;7.924;2022-07-06T02:53:17;2.25;;;0.98;;
42614;SDS011;28754;47.700;7.924;2022-07-06T02:56:08;2.65;;;0.88;;
42614;SDS011;28754;47.700;7.924;2022-07-06T02:58:55;1.83;;;1.20;;
42614;SDS011;28754;47.700;7.924;2022-07-06T03:01:42;1.80;;;1.00;;
42614;SDS011;28754;47.700;7.924;2022-07-06T03:04:29;1.52;;;1.02;;
42614;SDS011;28754;47.700;7.924;2022-07-06T03:07:15;1.52;;;1.00;;
42614;SDS011;28754;47.700;7.924;2022-07-06T03:10:04;1.70;;;0.90;;
42614;SDS011;28754;47.700;7.924;2022-07-06T03:12:51;2.83;;;1.00;;
42614;SDS011;28754;47.700;7.924;2022-07-06T03:15:38;7.35;;;1.35;;
42614;SDS011;28754;47.700;7.924;2022-07-06T03:18:25;2.40;;;0.90;;
42614;SDS011;28754;47.700;7.924;2022-07-06T03:21:12;2.20;;;0.93;;
42614;SDS011;28754;47.700;7.924;2022-07-06T03:23:59;3.58;;;1.25;;
42614;SDS011;28754;47.700;7.924;2022-07-06T03:26:45;2.25;;;1.17;;
42614;SDS011;28754;47.700;7.924;2022-07-06T03:29:34;1.20;;;0.90;;
42614;SDS011;28754;47.700;7.924;2022-07-06T03:32:21;1.55;;;0.70;;
42614;SDS011;28754;47.700;7.924;2022-07-06T03:35:08;1.23;;;0.90;;
42614;SDS011;28754;47.700;7.924;2022-07-06T03:37:55;2.95;;;1.08;;
42614;SDS011;28754;47.700;7.924;2022-07-06T03:40:44;2.20;;;0.90;;
42614;SDS011;28754;47.700;7.924;2022-07-06T03:43:31;1.50;;;1.13;;
42614;SDS011;28754;47.700;7.924;2022-07-06T03:46:18;2.13;;;1.17;;
42614;SDS011;28754;47.700;7.924;2022-07-06T03:49:05;2.35;;;1.10;;
42614;SDS011;28754;47.700;7.924;2022-07-06T03:51:52;1.33;;;1.00;;
42614;SDS011;28754;47.700;7.924;2022-07-06T03:54:41;1.77;;;0.95;;
42614;SDS011;28754;47.700;7.924;2022-07-06T03:57:29;1.67;;;1.00;;
42614;SDS011;28754;47.700;7.924;2022-07-06T04:00:22;2.80;;;0.90;;
42614;SDS011;28754;47.700;7.924;2022-07-06T04:03:17;1.83;;;1.00;;
42614;SDS011;28754;47.700;7.924;2022-07-06T04:06:08;4.90;;;1.20;;
42614;SDS011;28754;47.700;7.924;2022-07-06T04:08:55;1.27;;;0.80;;
42614;SDS011;28754;47.700;7.924;2022-07-06T04:11:42;1.75;;;1.23;;
42614;SDS011;28754;47.700;7.924;2022-07-06T04:14:29;0.93;;;0.80;;
42614;SDS011;28754;47.700;7.924;2022-07-06T04:17:16;1.45;;;1.10;;
42614;SDS011;28754;47.700;7.924;2022-07-06T04:20:23;2.80;;;0.88;;
42614;SDS011;28754;47.700;7.924;2022-07-06T04:23:12;1.10;;;0.95;;
42614;SDS011;28754;47.700;7.924;2022-07-06T04:25:59;2.15;;;1.15;;
42614;SDS011;28754;47.700;7.924;2022-07-06T04:28:48;1.77;;;1.00;;
42614;SDS011;28754;47.700;7.924;2022-07-06T04:31:35;1.17;;;0.93;;
42614;SDS011;28754;47.700;7.924;2022-07-06T04:34:22;1.23;;;1.02;;
42614;SDS011;28754;47.700;7.924;2022-07-06T04:37:09;1.67;;;0.88;;
42614;SDS011;28754;47.700;7.924;2022-07-06T04:39:57;1.48;;;0.95;;
42614;SDS011;28754;47.700;7.924;2022-07-06T04:42:44;5.40;;;0.73;;
42614;SDS011;28754;47.700;7.924;2022-07-06T04:45:31;4.80;;;0.90;;
42614;SDS011;28754;47.700;7.924;2022-07-06T04:48:18;3.13;;;0.90;;
42614;SDS011;28754;47.700;7.924;2022-07-06T04:51:05;1.92;;;0.80;;
42614;SDS011;28754;47.700;7.924;2022-07-06T04:53:52;5.13;;;1.30;;
42614;SDS011;28754;47.700;7.924;2022-07-06T04:56:41;1.42;;;0.88;;
42614;SDS011;28754;47.700;7.924;2022-07-06T04:59:27;4.47;;;0.90;;
42614;SDS011;28754;47.700;7.924;2022-07-06T05:02:14;2.63;;;1.10;;
42614;SDS011;28754;47.700;7.924;2022-07-06T05:05:01;2.40;;;1.15;;
42614;SDS011;28754;47.700;7.924;2022-07-06T05:07:49;2.88;;;0.93;;
42614;SDS011;28754;47.700;7.924;2022-07-06T05:10:36;2.95;;;0.90;;
42614;SDS011;28754;47.700;7.924;2022-07-06T05:13:22;2.40;;;1.00;;
42614;SDS011;28754;47.700;7.924;2022-07-06T05:16:09;2.58;;;0.80;;
42614;SDS011;28754;47.700;7.924;2022-07-06T05:18:56;1.85;;;1.00;;
42614;SDS011;28754;47.700;7.924;2022-07-06T05:21:43;2.13;;;0.82;;
42614;SDS011;28754;47.700;7.924;2022-07-06T05:24:29;3.15;;;0.60;;
42614;SDS011;28754;47.700;7.924;2022-07-06T05:27:16;1.30;;;1.02;;
42614;SDS011;28754;47.700;7.924;2022-07-06T05:30:06;3.25;;;1.20;;
42614;SDS011;28754;47.700;7.924;2022-07-06T05:32:53;1.98;;;1.13;;
42614;SDS011;28754;47.700;7.924;2022-07-06T05:35:40;2.72;;;0.85;;
42614;SDS011;28754;47.700;7.924;2022-07-06T05:38:27;1.42;;;0.90;;
42614;SDS011;28754;47.700;7.924;2022-07-06T05:41:15;1.02;;;0.70;;
42614;SDS011;28754;47.700;7.924;2022-07-06T05:44:02;1.27;;;0.70;;
42614;SDS011;28754;47.700;7.924;2022-07-06T05:46:49;1.58;;;0.70;;
42614;SDS011;28754;47.700;7.924;2022-07-06T05:49:37;1.23;;;0.80;;
42614;SDS011;28754;47.700;7.924;2022-07-06T05:53:04;3.55;;;1.08;;
42614;SDS011;28754;47.700;7.924;2022-07-06T05:55:52;2.92;;;0.95;;
42614;SDS011;28754;47.700;7.924;2022-07-06T05:58:40;0.82;;;0.73;;
42614;SDS011;28754;47.700;7.924;2022-07-06T06:01:26;2.72;;;0.80;;
42614;SDS011;28754;47.700;7.924;2022-07-06T06:04:24;2.28;;;0.93;;
42614;SDS011;28754;47.700;7.924;2022-07-06T06:07:11;2.40;;;1.20;;
42614;SDS011;28754;47.700;7.924;2022-07-06T06:09:58;13.82;;;3.78;;
42614;SDS011;28754;47.700;7.924;2022-07-06T06:12:45;2.30;;;1.20;;
42614;SDS011;28754;47.700;7.924;2022-07-06T06:15:32;4.70;;;1.23;;
42614;SDS011;28754;47.700;7.924;2022-07-06T06:18:19;3.42;;;1.30;;
42614;SDS011;28754;47.700;7.924;2022-07-06T06:21:05;2.40;;;1.58;;
42614;SDS011;28754;47.700;7.924;2022-07-06T06:23:52;2.78;;;1.10;;
42614;SDS011;28754;47.700;7.924;2022-07-06T06:26:39;6.43;;;1.08;;
42614;SDS011;28754;47.700;7.924;2022-07-06T06:29:25;1.67;;;1.00;;
42614;SDS011;28754;47.700;7.924;2022-07-06T06:32:12;3.95;;;0.93;;
42614;SDS011;28754;47.700;7.924;2022-07-06T06:34:59;3.67;;;1.25;;
42614;SDS011;28754;47.700;7.924;2022-07-06T06:37:46;2.33;;;1.20;;
42614;SDS011;28754;47.700;7.924;2022-07-06T06:40:33;1.98;;;0.98;;
42614;SDS011;28754;47.700;7.924;2022-07-06T06:43:20;2.95;;;1.20;;
42614;SDS011;28754;47.700;7.924;2022-07-06T06:46:36;1.63;;;0.95;;
42614;SDS011;28754;47.700;7.924;2022-07-06T06:49:24;4.32;;;1.38;;
42614;SDS011;28754;47.700;7.924;2022-07-06T06:52:10;2.03;;;1.20;;
42614;SDS011;28754;47.700;7.924;2022-07-06T06:54:57;1.48;;;1.35;;
42614;SDS011;28754;47.700;7.924;2022-07-06T06:57:44;5.65;;;1.63;;
42614;SDS011;28754;47.700;7.924;2022-07-06T07:00:31;1.27;;;1.00;;
42614;SDS011;28754;47.700;7.924;2022-07-06T07:03:17;2.95;;;1.52;;
42614;SDS011;28754;47.700;7.924;2022-07-06T07:06:04;3.40;;;0.95;;
42614;SDS011;28754;47.700;7.924;2022-07-06T07:08:51;2.90;;;1.02;;
42614;SDS011;28754;47.700;7.924;2022-07-06T07:11:38;3.33;;;1.15;;
42614;SDS011;28754;47.700;7.924;2022-07-06T07:14:24;2.85;;;1.20;;
42614;SDS011;28754;47.700;7.924;2022-07-06T07:17:13;1.92;;;1.20;;
42614;SDS011;28754;47.700;7.924;2022-07-06T07:20:00;1.85;;;0.90;;
42614;SDS011;28754;47.700;7.924;2022-07-06T07:22:47;2.40;;;1.50;;
42614;SDS011;28754;47.700;7.924;2022-07-06T07:25:34;1.27;;;0.85;;
42614;SDS011;28754;47.700;7.924;2022-07-06T07:28:20;2.33;;;1.48;;
42614;SDS011;28754;47.700;7.924;2022-07-06T07:31:07;3.17;;;1.67;;
42614;SDS011;28754;47.700;7.924;2022-07-06T07:33:54;5.00;;;2.03;;
42614;SDS011;28754;47.700;7.924;2022-07-06T07:36:43;2.83;;;1.38;;
42614;SDS011;28754;47.700;7.924;2022-07-06T07:39:29;2.83;;;2.05;;
42614;SDS011;28754;47.700;7.924;2022-07-06T07:42:16;1.90;;;1.35;;
42614;SDS011;28754;47.700;7.924;2022-07-06T07:45:03;7.10;;;2.13;;
42614;SDS011;28754;47.700;7.924;2022-07-06T07:47:50;2.95;;;1.75;;
42614;SDS011;28754;47.700;7.924;2022-07-06T07:50:37;2.78;;;1.80;;
42614;SDS011;28754;47.700;7.924;2022-07-06T07:53:23;4.00;;;2.15;;
42614;SDS011;28754;47.700;7.924;2022-07-06T07:56:10;2.67;;;1.50;;
42614;SDS011;28754;47.700;7.924;2022-07-06T07:58:57;2.63;;;1.63;;
42614;SDS011;28754;47.700;7.924;2022-07-06T08:01:48;4.22;;;1.92;;
42614;SDS011;28754;47.700;7.924;2022-07-06T08:04:35;4.78;;;2.05;;
42614;SDS011;28754;47.700;7.924;2022-07-06T08:07:22;2.92;;;2.05;;
42614;SDS011;28754;47.700;7.924;2022-07-06T08:10:08;5.22;;;2.03;;
42614;SDS011;28754;47.700;7.924;2022-07-06T08:12:56;5.32;;;2.40;;
42614;SDS011;28754;47.700;7.924;2022-07-06T08:15:43;4.60;;;2.28;;
42614;SDS011;28754;47.700;7.924;2022-07-06T08:18:29;2.88;;;2.30;;
42614;SDS011;28754;47.700;7.924;2022-07-06T08:21:16;4.78;;;2.22;;
42614;SDS011;28754;47.700;7.924;2022-07-06T08:24:03;4.40;;;2.10;;
42614;SDS011;28754;47.700;7.924;2022-07-06T08:26:50;4.80;;;2.63;;
42614;SDS011;28754;47.700;7.924;2022-07-06T08:29:37;2.17;;;1.98;;
42614;SDS011;28754;47.700;7.924;2022-07-06T08:32:24;3.30;;;2.17;;
42614;SDS011;28754;47.700;7.924;2022-07-06T08:35:10;4.38;;;2.40;;
42614;SDS011;28754;47.700;7.924;2022-07-06T08:37:57;3.03;;;2.20;;
42614;SDS011;28754;47.700;7.924;2022-07-06T08:40:46;4.68;;;2.05;;
42614;SDS011;28754;47.700;7.924;2022-07-06T08:43:35;6.35;;;2.25;;
42614;SDS011;28754;47.700;7.924;2022-07-06T08:46:22;3.42;;;1.80;;
42614;SDS011;28754;47.700;7.924;2022-07-06T08:49:12;5.32;;;2.13;;
42614;SDS011;28754;47.700;7.924;2022-07-06T08:52:04;3.75;;;1.70;;
42614;SDS011;28754;47.700;7.924;2022-07-06T08:54:51;3.10;;;1.55;;
42614;SDS011;28754;47.700;7.924;2022-07-06T08:57:38;5.40;;;2.20;;
42614;SDS011;28754;47.700;7.924;2022-07-06T09:00:27;2.42;;;1.63;;
42614;SDS011;28754;47.700;7.924;2022-07-06T09:03:14;3.10;;;2.35;;
42614;SDS011;28754;47.700;7.924;2022-07-06T09:06:01;5.32;;;2.30;;
42614;SDS011;28754;47.700;7.924;2022-07-06T09:08:49;6.30;;;2.13;;
42614;SDS011;28754;47.700;7.924;2022-07-06T09:11:39;4.88;;;2.35;;
42614;SDS011;28754;47.700;7.924;2022-07-06T09:14:25;3.15;;;1.77;;
42614;SDS011;28754;47.700;7.924;2022-07-06T09:17:13;7.63;;;2.78;;
42614;SDS011;28754;47.700;7.924;2022-07-06T09:19:59;4.18;;;2.17;;
42614;SDS011;28754;47.700;7.924;2022-07-06T09:22:46;6.07;;;2.42;;
42614;SDS011;28754;47.700;7.924;2022-07-06T09:25:33;2.55;;;1.90;;
42614;SDS011;28754;47.700;7.924;2022-07-06T09:28:21;3.08;;;2.63;;
42614;SDS011;28754;47.700;7.924;2022-07-06T09:31:08;3.72;;;1.75;;
42614;SDS011;28754;47.700;7.924;2022-07-06T09:34:05;3.47;;;2.25;;
42614;SDS011;28754;47.700;7.924;2022-07-06T09:36:56;3.83;;;1.92;;
42614;SDS011;28754;47.700;7.924;2022-07-06T09:39:43;11.05;;;2.60;;
42614;SDS011;28754;47.700;7.924;2022-07-06T09:42:30;3.42;;;1.70;;
42614;SDS011;28754;47.700;7.924;2022-07-06T09:45:21;2.58;;;2.20;;
42614;SDS011;28754;47.700;7.924;2022-07-06T09:48:08;3.38;;;2.08;;
42614;SDS011;28754;47.700;7.924;2022-07-06T09:51:01;4.00;;;2.22;;
42614;SDS011;28754;47.700;7.924;2022-07-06T09:53:52;5.07;;;2.05;;
42614;SDS011;28754;47.700;7.924;2022-07-06T09:56:44;3.83;;;1.80;;
42614;SDS011;28754;47.700;7.924;2022-07-06T09:59:39;6.00;;;2.97;;
42614;SDS011;28754;47.700;7.924;2022-07-06T10:02:25;4.25;;;2.22;;
42614;SDS011;28754;47.700;7.924;2022-07-06T10:05:15;3.38;;;2.40;;
42614;SDS011;28754;47.700;7.924;2022-07-06T10:08:04;2.55;;;1.63;;
42614;SDS011;28754;47.700;7.924;2022-07-06T10:10:55;6.45;;;1.98;;
42614;SDS011;28754;47.700;7.924;2022-07-06T10:13:42;4.68;;;1.95;;
42614;SDS011;28754;47.700;7.924;2022-07-06T10:16:36;3.85;;;2.20;;
42614;SDS011;28754;47.700;7.924;2022-07-06T10:19:25;2.55;;;2.15;;
42614;SDS011;28754;47.700;7.924;2022-07-06T10:22:14;10.50;;;3.60;;
42614;SDS011;28754;47.700;7.924;2022-07-06T10:25:04;8.07;;;2.10;;
42614;SDS011;28754;47.700;7.924;2022-07-06T10:27:52;2.78;;;1.90;;
42614;SDS011;28754;47.700;7.924;2022-07-06T10:30:40;3.22;;;2.17;;
42614;SDS011;28754;47.700;7.924;2022-07-06T10:33:29;5.32;;;2.38;;
42614;SDS011;28754;47.700;7.924;2022-07-06T10:36:17;3.92;;;2.25;;
42614;SDS011;28754;47.700;7.924;2022-07-06T10:39:04;2.95;;;2.40;;
42614;SDS011;28754;47.700;7.924;2022-07-06T10:42:29;2.95;;;1.80;;
42614;SDS011;28754;47.700;7.924;2022-07-06T10:48:18;5.22;;;1.90;;
42614;SDS011;28754;47.700;7.924;2022-07-06T10:51:07;6.55;;;2.50;;
42614;SDS011;28754;47.700;7.924;2022-07-06T10:53:57;3.72;;;2.35;;
42614;SDS011;28754;47.700;7.924;2022-07-06T10:56:51;4.30;;;2.45;;
42614;SDS011;28754;47.700;7.924;2022-07-06T10:59:38;4.88;;;2.63;;
42614;SDS011;28754;47.700;7.924;2022-07-06T11:02:24;2.90;;;2.10;;
42614;SDS011;28754;47.700;7.924;2022-07-06T11:05:11;3.42;;;1.90;;
42614;SDS011;28754;47.700;7.924;2022-07-06T11:08:41;4.55;;;2.33;;
42614;SDS011;28754;47.700;7.924;2022-07-06T11:14:21;4.95;;;2.25;;
42614;SDS011;28754;47.700;7.924;2022-07-06T11:17:09;5.05;;;2.63;;
42614;SDS011;28754;47.700;7.924;2022-07-06T11:19:58;5.88;;;2.10;;
42614;SDS011;28754;47.700;7.924;2022-07-06T11:22:56;6.50;;;2.13;;
42614;SDS011;28754;47.700;7.924;2022-07-06T11:25:43;3.38;;;1.52;;
42614;SDS011;28754;47.700;7.924;2022-07-06T11:28:30;2.55;;;2.00;;
42614;SDS011;28754;47.700;7.924;2022-07-06T11:31:17;7.93;;;1.65;;
42614;SDS011;28754;47.700;7.924;2022-07-06T11:34:05;3.33;;;1.85;;
42614;SDS011;28754;47.700;7.924;2022-07-06T11:37:01;5.30;;;2.22;;
42614;SDS011;28754;47.700;7.924;2022-07-06T11:39:51;3.58;;;1.83;;
42614;SDS011;28754;47.700;7.924;2022-07-06T11:42:37;2.45;;;1.58;;
42614;SDS011;28754;47.700;7.924;2022-07-06T11:45:26;1.88;;;1.40;;
42614;SDS011;28754;47.700;7.924;2022-07-06T11:48:13;11.95;;;3.03;;
42614;SDS011;28754;47.700;7.924;2022-07-06T11:51:00;3.13;;;1.80;;
42614;SDS011;28754;47.700;7.924;2022-07-06T11:53:50;7.60;;;2.30;;
42614;SDS011;28754;47.700;7.924;2022-07-06T11:56:50;9.77;;;1.83;;
42614;SDS011;28754;47.700;7.924;2022-07-06T11:59:42;3.55;;;2.10;;
42614;SDS011;28754;47.700;7.924;2022-07-06T12:02:32;2.55;;;1.40;;
42614;SDS011;28754;47.700;7.924;2022-07-06T12:05:29;2.50;;;1.17;;
42614;SDS011;28754;47.700;7.924;2022-07-06T12:08:16;3.58;;;1.75;;
42614;SDS011;28754;47.700;7.924;2022-07-06T12:11:03;3.38;;;1.25;;
42614;SDS011;28754;47.700;7.924;2022-07-06T12:13:54;2.92;;;1.05;;
42614;SDS011;28754;47.700;7.924;2022-07-06T12:16:43;2.08;;;1.15;;
42614;SDS011;28754;47.700;7.924;2022-07-06T12:19:31;5.03;;;1.80;;
42614;SDS011;28754;47.700;7.924;2022-07-06T12:22:23;4.93;;;0.98;;
42614;SDS011;28754;47.700;7.924;2022-07-06T12:25:12;2.05;;;1.10;;
42614;SDS011;28754;47.700;7.924;2022-07-06T12:28:22;2.33;;;1.25;;
42614;SDS011;28754;47.700;7.924;2022-07-06T12:31:10;1.67;;;1.10;;
42614;SDS011;28754;47.700;7.924;2022-07-06T12:33:57;0.90;;;0.77;;
42614;SDS011;28754;47.700;7.924;2022-07-06T12:36:48;2.90;;;1.50;;
42614;SDS011;28754;47.700;7.924;2022-07-06T12:39:46;2.33;;;1.52;;
42614;SDS011;28754;47.700;7.924;2022-07-06T12:42:35;1.08;;;0.80;;
42614;SDS011;28754;47.700;7.924;2022-07-06T12:45:33;2.67;;;1.80;;
42614;SDS011;28754;47.700;7.924;2022-07-06T12:48:19;1.10;;;0.85;;
42614;SDS011;28754;47.700;7.924;2022-07-06T12:51:06;2.70;;;1.40;;
42614;SDS011;28754;47.700;7.924;2022-07-06T12:53:53;1.23;;;1.05;;
42614;SDS011;28754;47.700;7.924;2022-07-06T12:59:58;2.28;;;1.15;;
42614;SDS011;28754;47.700;7.924;2022-07-06T13:02:47;3.28;;;0.90;;
42614;SDS011;28754;47.700;7.924;2022-07-06T13:05:39;3.15;;;1.25;;
42614;SDS011;28754;47.700;7.924;2022-07-06T13:08:35;1.55;;;0.98;;
42614;SDS011;28754;47.700;7.924;2022-07-06T13:11:22;2.58;;;0.98;;
42614;SDS011;28754;47.700;7.924;2022-07-06T13:14:09;1.92;;;1.13;;
42614;SDS011;28754;47.700;7.924;2022-07-06T13:16:55;1.90;;;1.10;;
42614;SDS011;28754;47.700;7.924;2022-07-06T13:19:42;1.70;;;0.98;;
42614;SDS011;28754;47.700;7.924;2022-07-06T13:22:28;2.22;;;1.10;;
42614;SDS011;28754;47.700;7.924;2022-07-06T13:25:15;1.35;;;0.98;;
42614;SDS011;28754;47.700;7.924;2022-07-06T13:28:02;2.63;;;1.42;;
42614;SDS011;28754;47.700;7.924;2022-07-06T13:30:49;1.25;;;0.73;;
42614;SDS011;28754;47.700;7.924;2022-07-06T13:33:35;2.17;;;1.55;;
42614;SDS011;28754;47.700;7.924;2022-07-06T13:36:22;4.03;;;1.00;;
42614;SDS011;28754;47.700;7.924;2022-07-06T13:39:09;1.23;;;0.82;;
42614;SDS011;28754;47.700;7.924;2022-07-06T13:41:56;2.63;;;0.90;;
42614;SDS011;28754;47.700;7.924;2022-07-06T13:44:43;2.72;;;1.00;;
42614;SDS011;28754;47.700;7.924;2022-07-06T13:47:30;3.38;;;1.00;;
42614;SDS011;28754;47.700;7.924;2022-07-06T13:50:16;2.92;;;0.85;;
42614;SDS011;28754;47.700;7.924;2022-07-06T13:53:03;2.85;;;0.95;;
42614;SDS011;28754;47.700;7.924;2022-07-06T13:55:50;2.45;;;1.08;;
42614;SDS011;28754;47.700;7.924;2022-07-06T13:58:38;1.35;;;1.13;;
42614;SDS011;28754;47.700;7.924;2022-07-06T14:01:24;2.08;;;1.10;;
42614;SDS011;28754;47.700;7.924;2022-07-06T14:04:11;1.40;;;1.17;;
42614;SDS011;28754;47.700;7.924;2022-07-06T14:06:58;2.55;;;1.40;;
42614;SDS011;28754;47.700;7.924;2022-07-06T14:09:45;1.33;;;1.00;;
42614;SDS011;28754;47.700;7.924;2022-07-06T14:12:32;1.42;;;0.88;;
42614;SDS011;28754;47.700;7.924;2022-07-06T14:15:19;2.40;;;1.52;;
42614;SDS011;28754;47.700;7.924;2022-07-06T14:18:06;2.03;;;1.10;;
42614;SDS011;28754;47.700;7.924;2022-07-06T14:20:53;2.03;;;0.98;;
42614;SDS011;28754;47.700;7.924;2022-07-06T14:23:40;1.88;;;1.35;;
42614;SDS011;28754;47.700;7.924;2022-07-06T14:26:26;1.30;;;1.20;;
42614;SDS011;28754;47.700;7.924;2022-07-06T14:29:13;2.50;;;1.05;;
42614;SDS011;28754;47.700;7.924;2022-07-06T14:32:00;3.17;;;1.25;;
42614;SDS011;28754;47.700;7.924;2022-07-06T14:34:46;7.32;;;1.38;;
42614;SDS011;28754;47.700;7.924;2022-07-06T14:37:33;1.80;;;1.20;;
42614;SDS011;28754;47.700;7.924;2022-07-06T14:40:20;1.15;;;1.00;;
42614;SDS011;28754;47.700;7.924;2022-07-06T14:43:06;3.30;;;1.67;;
42614;SDS011;28754;47.700;7.924;2022-07-06T14:45:54;5.20;;;1.50;;
42614;SDS011;28754;47.700;7.924;2022-07-06T14:48:40;3.85;;;1.35;;
42614;SDS011;28754;47.700;7.924;2022-07-06T14:51:27;3.08;;;1.38;;
42614;SDS011;28754;47.700;7.924;2022-07-06T14:54:14;4.85;;;2.17;;
42614;SDS011;28754;47.700;7.924;2022-07-06T14:57:01;3.13;;;1.77;;
42614;SDS011;28754;47.700;7.924;2022-07-06T14:59:50;2.38;;;1.23;;
42614;SDS011;28754;47.700;7.924;2022-07-06T15:02:36;3.25;;;1.35;;
42614;SDS011;28754;47.700;7.924;2022-07-06T15:05:23;4.60;;;1.60;;
42614;SDS011;28754;47.700;7.924;2022-07-06T15:08:10;1.92;;;1.50;;
42614;SDS011;28754;47.700;7.924;2022-07-06T15:10:57;2.78;;;1.77;;
42614;SDS011;28754;47.700;7.924;2022-07-06T15:13:43;4.07;;;1.27;;
42614;SDS011;28754;47.700;7.924;2022-07-06T15:16:30;3.67;;;1.60;;
42614;SDS011;28754;47.700;7.924;2022-07-06T15:19:17;3.45;;;1.63;;
42614;SDS011;28754;47.700;7.924;2022-07-06T15:22:04;7.00;;;1.83;;
42614;SDS011;28754;47.700;7.924;2022-07-06T15:24:50;5.53;;;1.98;;
42614;SDS011;28754;47.700;7.924;2022-07-06T15:27:37;3.28;;;1.83;;
42614;SDS011;28754;47.700;7.924;2022-07-06T15:30:24;4.57;;;1.90;;
42614;SDS011;28754;47.700;7.924;2022-07-06T15:33:10;5.75;;;1.75;;
42614;SDS011;28754;47.700;7.924;2022-07-06T15:35:57;5.40;;;2.38;;
42614;SDS011;28754;47.700;7.924;2022-07-06T15:38:44;2.42;;;1.45;;
42614;SDS011;28754;47.700;7.924;2022-07-06T15:41:31;4.78;;;2.17;;
42614;SDS011;28754;47.700;7.924;2022-07-06T15:44:18;3.42;;;1.50;;
42614;SDS011;28754;47.700;7.924;2022-07-06T15:47:05;4.82;;;1.42;;
42614;SDS011;28754;47.700;7.924;2022-07-06T15:49:53;2.97;;;2.08;;
42614;SDS011;28754;47.700;7.924;2022-07-06T15:52:39;2.13;;;1.65;;
42614;SDS011;28754;47.700;7.924;2022-07-06T15:55:26;7.13;;;1.52;;
42614;SDS011;28754;47.700;7.924;2022-07-06T15:58:12;5.13;;;2.00;;
42614;SDS011;28754;47.700;7.924;2022-07-06T16:01:01;3.83;;;1.42;;
42614;SDS011;28754;47.700;7.924;2022-07-06T16:03:47;4.15;;;1.95;;
42614;SDS011;28754;47.700;7.924;2022-07-06T16:06:35;2.38;;;1.80;;
42614;SDS011;28754;47.700;7.924;2022-07-06T16:09:21;2.42;;;1.70;;
42614;SDS011;28754;47.700;7.924;2022-07-06T16:12:08;2.60;;;1.50;;
42614;SDS011;28754;47.700;7.924;2022-07-06T16:14:55;3.08;;;2.10;;
42614;SDS011;28754;47.700;7.924;2022-07-06T16:17:42;5.45;;;1.67;;
42614;SDS011;28754;47.700;7.924;2022-07-06T16:20:32;5.65;;;1.83;;
42614;SDS011;28754;47.700;7.924;2022-07-06T16:23:19;2.92;;;1.83;;
42614;SDS011;28754;47.700;7.924;2022-07-06T16:26:05;7.13;;;2.10;;
42614;SDS011;28754;47.700;7.924;2022-07-06T16:28:53;2.15;;;1.67;;
42614;SDS011;28754;47.700;7.924;2022-07-06T16:31:39;8.60;;;2.38;;
42614;SDS011;28754;47.700;7.924;2022-07-06T16:34:26;2.88;;;1.75;;
42614;SDS011;28754;47.700;7.924;2022-07-06T16:37:13;2.28;;;1.70;;
42614;SDS011;28754;47.700;7.924;2022-07-06T16:39:59;3.22;;;2.00;;
42614;SDS011;28754;47.700;7.924;2022-07-06T16:42:47;7.25;;;1.95;;
42614;SDS011;28754;47.700;7.924;2022-07-06T16:45:33;4.38;;;1.58;;
42614;SDS011;28754;47.700;7.924;2022-07-06T16:48:20;3.75;;;1.73;;
42614;SDS011;28754;47.700;7.924;2022-07-06T16:51:07;3.45;;;1.70;;
42614;SDS011;28754;47.700;7.924;2022-07-06T16:53:54;3.33;;;1.80;;
42614;SDS011;28754;47.700;7.924;2022-07-06T16:56:41;3.58;;;1.90;;
42614;SDS011;28754;47.700;7.924;2022-07-06T16:59:27;10.02;;;2.40;;
42614;SDS011;28754;47.700;7.924;2022-07-06T17:02:17;2.20;;;1.70;;